createdAt,value
2022-09-24T00:01:40.941Z,86.48
2022-09-24T00:04:11.769Z,86.50
2022-09-24T00:06:44.590Z,86.47
2022-09-24T00:09:13.895Z,86.48
2022-09-24T00:11:42.634Z,86.49
2022-09-24T00:14:09.291Z,86.46
2022-09-24T00:16:36.034Z,86.41
2022-09-24T00:19:04.869Z,86.39
2022-09-24T00:21:35.032Z,86.47
2022-09-24T00:24:06.554Z,86.62
2022-09-24T00:26:51.842Z,86.70
2022-09-24T00:29:22.273Z,86.63
2022-09-24T00:31:52.075Z,86.75
2022-09-24T00:34:19.951Z,87.03
2022-09-24T00:36:48.009Z,87.10
2022-09-24T00:39:16.490Z,87.19
2022-09-24T00:41:46.756Z,87.18
2022-09-24T00:44:44.789Z,87.23
2022-09-24T00:47:27.103Z,87.32
2022-09-24T00:50:30.825Z,87.25
2022-09-24T00:53:07.173Z,87.24
2022-09-24T00:55:36.430Z,87.24
2022-09-24T00:58:26.091Z,87.39
2022-09-24T01:01:05.137Z,87.42
2022-09-24T01:03:35.948Z,87.41
2022-09-24T01:06:02.702Z,87.58
2022-09-24T01:08:29.309Z,87.72
2022-09-24T01:10:55.814Z,87.57
2022-09-24T01:13:56.218Z,87.68
2022-09-24T01:16:25.723Z,87.75
2022-09-24T01:19:11.155Z,87.72
2022-09-24T01:22:02.972Z,87.69
2022-09-24T01:24:44.879Z,87.86
2022-09-24T01:27:22.879Z,88.01
2022-09-24T01:30:01.980Z,88.12
2022-09-24T01:32:54.980Z,88.23
2022-09-24T01:35:33.923Z,88.21
2022-09-24T01:38:06.539Z,88.26
2022-09-24T01:40:35.377Z,88.22
2022-09-24T01:43:05.341Z,88.12
2022-09-24T01:45:43.138Z,88.00
2022-09-24T01:48:10.399Z,87.92
2022-09-24T01:51:00.275Z,87.91
2022-09-24T01:53:35.471Z,88.08
2022-09-24T01:56:10.350Z,88.34
2022-09-24T01:59:11.182Z,88.32
2022-09-24T02:01:48.103Z,88.27
2022-09-24T02:04:19.436Z,88.24
2022-09-24T02:06:55.371Z,88.31
2022-09-24T02:09:34.296Z,88.43
2022-09-24T02:12:19.358Z,88.40
2022-09-24T02:14:57.480Z,88.57
2022-09-24T02:17:28.608Z,88.57
2022-09-24T02:19:58.521Z,88.55
2022-09-24T02:22:25.710Z,88.66
2022-09-24T02:24:58.265Z,88.70
2022-09-24T02:27:28.469Z,88.72
2022-09-24T02:29:59.746Z,88.79
2022-09-24T02:32:30.686Z,88.68
2022-09-24T02:35:05.379Z,88.66
2022-09-24T02:37:43.994Z,88.75
2022-09-24T02:40:14.191Z,88.76
2022-09-24T02:42:42.292Z,88.77
2022-09-24T02:45:10.160Z,88.77
2022-09-24T02:47:37.199Z,88.81
2022-09-24T02:50:04.663Z,88.80
2022-09-24T02:52:31.448Z,88.93
2022-09-24T02:54:58.093Z,88.94
2022-09-24T02:57:24.929Z,89.00
2022-09-24T02:59:51.845Z,89.05
2022-09-24T03:02:18.773Z,88.96
2022-09-24T03:04:46.708Z,88.89
2022-09-24T03:07:14.366Z,88.93
2022-09-24T03:09:41.154Z,88.91
2022-09-24T03:12:08.340Z,88.96
2022-09-24T03:14:35.134Z,89.09
2022-09-24T03:17:01.873Z,89.14
2022-09-24T03:19:29.015Z,89.16
2022-09-24T03:21:55.958Z,89.18
2022-09-24T03:24:22.600Z,89.31
2022-09-24T03:26:49.361Z,89.29
2022-09-24T03:29:16.418Z,89.27
2022-09-24T03:31:44.094Z,89.28
2022-09-24T03:34:11.175Z,89.34
2022-09-24T03:36:38.035Z,89.33
2022-09-24T03:39:05.185Z,89.24
2022-09-24T03:41:31.815Z,89.27
2022-09-24T03:43:58.565Z,89.41
2022-09-24T03:46:27.841Z,89.41
2022-09-24T03:48:55.732Z,89.43
2022-09-24T03:51:22.586Z,89.45
2022-09-24T03:53:49.464Z,89.43
2022-09-24T03:56:16.372Z,89.55
2022-09-24T03:58:47.778Z,89.63
2022-09-24T04:01:20.775Z,89.66
2022-09-24T04:03:49.822Z,89.61
2022-09-24T04:06:18.743Z,89.55
2022-09-24T04:08:49.008Z,89.59
2022-09-24T04:11:16.615Z,89.66
2022-09-24T04:13:44.025Z,89.66
2022-09-24T04:16:10.859Z,89.61
2022-09-24T04:18:39.579Z,89.71
2022-09-24T04:21:06.929Z,89.67
2022-09-24T04:23:33.852Z,89.58
2022-09-24T04:26:01.734Z,89.44
2022-09-24T04:28:30.201Z,89.33
2022-09-24T04:30:57.977Z,89.39
2022-09-24T04:33:24.794Z,89.58
2022-09-24T04:35:51.638Z,89.79
2022-09-24T04:38:20.989Z,89.87
2022-09-24T04:40:48.113Z,89.96
2022-09-24T04:43:14.930Z,89.68
2022-09-24T04:45:44.639Z,89.54
2022-09-24T04:48:12.196Z,89.68
2022-09-24T04:50:43.294Z,89.93
2022-09-24T04:53:12.739Z,90.09
2022-09-24T04:55:41.120Z,90.08
2022-09-24T04:58:08.985Z,89.93
2022-09-24T05:00:36.059Z,89.73
2022-09-24T05:03:03.232Z,89.65
2022-09-24T05:05:31.973Z,89.72
2022-09-24T05:08:00.147Z,89.83
2022-09-24T05:10:28.618Z,90.00
2022-09-24T05:12:55.366Z,90.16
2022-09-24T05:15:22.147Z,90.21
2022-09-24T05:17:48.964Z,90.19
2022-09-24T05:20:18.804Z,90.23
2022-09-24T05:22:47.437Z,90.39
2022-09-24T05:25:15.981Z,90.41
2022-09-24T05:28:00.786Z,90.35
2022-09-24T05:30:27.688Z,90.33
2022-09-24T05:32:54.419Z,90.33
2022-09-24T05:35:23.394Z,90.33
2022-09-24T05:37:52.969Z,90.22
2022-09-24T05:40:55.288Z,90.07
2022-09-24T05:43:21.996Z,89.85
2022-09-24T05:45:49.746Z,89.74
2022-09-24T05:48:16.900Z,89.54
2022-09-24T05:50:43.742Z,89.31
2022-09-24T05:53:10.805Z,89.25
2022-09-24T05:55:37.474Z,89.15
2022-09-24T05:58:10.424Z,88.90
2022-09-24T06:00:37.528Z,88.96
2022-09-24T06:03:12.423Z,89.01
2022-09-24T06:05:46.771Z,89.01
2022-09-24T06:08:15.048Z,88.72
2022-09-24T06:10:45.081Z,88.35
2022-09-24T06:13:13.688Z,88.00
2022-09-24T06:15:41.845Z,87.83
2022-09-24T06:18:10.192Z,87.37
2022-09-24T06:20:38.131Z,87.16
2022-09-24T06:23:05.982Z,86.85
2022-09-24T06:25:33.068Z,86.96
2022-09-24T06:28:02.990Z,87.08
2022-09-24T06:30:33.761Z,87.11
2022-09-24T06:33:08.026Z,87.08
2022-09-24T06:35:41.082Z,86.98
2022-09-24T06:38:11.557Z,86.82
2022-09-24T06:40:38.709Z,86.68
2022-09-24T06:43:06.856Z,86.47
2022-09-24T06:45:34.276Z,85.02
2022-09-24T06:48:02.570Z,84.86
2022-09-24T06:50:31.310Z,84.85
2022-09-24T06:52:58.529Z,84.72
2022-09-24T06:55:25.078Z,84.57
2022-09-24T06:58:05.474Z,83.44
2022-09-24T07:00:32.994Z,83.47
2022-09-24T07:03:00.595Z,83.15
2022-09-24T07:05:27.339Z,82.58
2022-09-24T07:07:54.014Z,82.37
2022-09-24T07:10:20.845Z,82.06
2022-09-24T07:12:47.763Z,81.31
2022-09-24T07:15:14.503Z,80.48
2022-09-24T07:17:41.440Z,78.86
2022-09-24T07:20:08.702Z,78.76
2022-09-24T07:22:39.835Z,79.30
2022-09-24T07:25:11.802Z,78.67
2022-09-24T07:27:39.059Z,78.44
2022-09-24T07:30:08.005Z,77.37
2022-09-24T07:32:35.910Z,75.99
2022-09-24T07:35:02.687Z,74.02
2022-09-24T07:37:32.071Z,74.15
2022-09-24T07:39:59.125Z,70.67
2022-09-24T07:42:26.005Z,69.56
2022-09-24T07:44:52.648Z,68.26
2022-09-24T07:47:19.505Z,68.00
2022-09-24T07:49:46.175Z,67.46
2022-09-24T07:52:13.326Z,67.63
2022-09-24T07:54:41.380Z,66.40
2022-09-24T07:57:14.938Z,65.47
2022-09-24T07:59:44.218Z,62.88
2022-09-24T08:02:16.860Z,62.09
2022-09-24T08:04:44.419Z,62.46
2022-09-24T08:07:13.717Z,63.49
2022-09-24T08:09:40.498Z,63.25
2022-09-24T08:12:07.840Z,63.52
2022-09-24T08:14:34.724Z,63.17
2022-09-24T08:17:02.207Z,62.68
2022-09-24T08:19:30.885Z,59.50
2022-09-24T08:21:58.220Z,59.88
2022-09-24T08:24:25.711Z,59.04
2022-09-24T08:26:52.498Z,57.41
2022-09-24T08:29:19.409Z,55.43
2022-09-24T08:31:46.236Z,55.19
2022-09-24T08:34:14.327Z,54.00
2022-09-24T08:36:43.150Z,53.21
2022-09-24T08:39:13.315Z,52.07
2022-09-24T08:41:57.561Z,49.94
2022-09-24T08:45:04.901Z,49.11
2022-09-24T08:47:43.056Z,49.38
2022-09-24T08:50:17.782Z,49.88
2022-09-24T08:52:58.554Z,49.97
2022-09-24T08:55:38.195Z,49.16
2022-09-24T08:58:11.237Z,48.03
2022-09-24T09:00:56.317Z,46.06
2022-09-24T09:03:36.728Z,46.16
2022-09-24T09:06:18.843Z,46.79
2022-09-24T09:09:06.897Z,46.58
2022-09-24T09:11:37.465Z,45.55
2022-09-24T09:14:19.315Z,44.89
2022-09-24T09:16:55.132Z,44.51
2022-09-24T09:19:35.181Z,43.67
2022-09-24T09:22:15.767Z,42.40
2022-09-24T09:24:49.988Z,41.13
2022-09-24T09:27:19.704Z,41.64
2022-09-24T09:29:54.261Z,42.48
2022-09-24T09:32:21.036Z,41.27
2022-09-24T09:35:03.005Z,39.82
2022-09-24T09:38:07.706Z,38.49
2022-09-24T09:40:47.917Z,38.14
2022-09-24T09:43:15.093Z,38.25
2022-09-24T09:46:13.203Z,38.52
2022-09-24T09:48:53.968Z,39.89
2022-09-24T09:51:25.639Z,37.41
2022-09-24T09:53:59.498Z,38.30
2022-09-24T09:56:30.777Z,37.28
2022-09-24T09:59:07.666Z,36.57
2022-09-24T10:01:37.710Z,36.44
2022-09-24T10:04:05.218Z,35.71
2022-09-24T10:06:34.960Z,34.84
2022-09-24T10:09:14.607Z,34.32
2022-09-24T10:11:41.850Z,34.56
2022-09-24T10:14:14.631Z,35.83
2022-09-24T10:16:48.370Z,37.38
2022-09-24T10:19:24.736Z,39.30
2022-09-24T10:21:55.152Z,39.94
2022-09-24T10:24:24.792Z,39.33
2022-09-24T10:26:53.170Z,38.94
2022-09-24T10:29:46.606Z,39.42
2022-09-24T10:32:25.955Z,41.05
2022-09-24T10:35:18.436Z,37.57
2022-09-24T10:37:57.897Z,35.60
2022-09-24T10:40:40.409Z,34.59
2022-09-24T10:43:15.313Z,35.48
2022-09-24T10:46:01.121Z,35.35
2022-09-24T10:48:45.704Z,35.29
2022-09-24T10:51:29.321Z,35.70
2022-09-24T10:54:15.312Z,36.17
2022-09-24T10:56:55.197Z,34.28
2022-09-24T10:59:54.419Z,34.04
2022-09-24T11:02:28.511Z,32.75
2022-09-24T11:05:23.595Z,33.87
2022-09-24T11:08:25.882Z,33.28
2022-09-24T11:11:25.648Z,34.88
2022-09-24T11:14:08.578Z,34.58
2022-09-24T11:17:17.119Z,35.34
2022-09-24T11:19:49.998Z,35.85
2022-09-24T11:22:38.555Z,36.63
2022-09-24T11:25:42.710Z,37.69
2022-09-24T11:28:16.418Z,38.58
2022-09-24T11:31:15.920Z,38.80
2022-09-24T11:34:01.434Z,39.96
2022-09-24T11:36:40.197Z,39.80
2022-09-24T11:39:38.876Z,39.13
2022-09-24T11:42:19.447Z,40.01
2022-09-24T11:45:15.835Z,40.13
2022-09-24T11:48:10.492Z,39.86
2022-09-24T11:51:02.494Z,40.72
2022-09-24T11:53:39.985Z,40.96
2022-09-24T11:56:15.502Z,40.61
2022-09-24T11:58:58.575Z,40.61
2022-09-24T12:01:33.445Z,40.01
2022-09-24T12:04:13.137Z,34.68
2022-09-24T12:06:59.975Z,34.03
2022-09-24T12:09:38.478Z,32.96
2022-09-24T12:12:19.631Z,30.73
2022-09-24T12:14:55.465Z,30.86
2022-09-24T12:17:46.423Z,32.37
2022-09-24T12:20:20.485Z,31.62
2022-09-24T12:22:52.149Z,31.34
2022-09-24T12:25:19.404Z,31.99
2022-09-24T12:27:47.638Z,32.11
2022-09-24T12:30:58.591Z,31.03
2022-09-24T12:33:53.689Z,31.28
2022-09-24T12:36:27.616Z,31.67
2022-09-24T12:39:01.957Z,29.07
2022-09-24T12:41:32.014Z,27.44
2022-09-24T12:44:01.295Z,27.72
2022-09-24T12:46:37.960Z,28.05
2022-09-24T12:49:31.228Z,28.62
2022-09-24T12:52:18.666Z,28.67
2022-09-24T12:54:45.934Z,29.74
2022-09-24T12:57:25.262Z,30.38
2022-09-24T13:00:04.444Z,30.50
2022-09-24T13:02:45.842Z,30.57
2022-09-24T13:05:22.123Z,31.02
2022-09-24T13:08:16.520Z,32.26
2022-09-24T13:11:00.349Z,33.16
2022-09-24T13:13:31.440Z,32.82
2022-09-24T13:16:15.882Z,32.14
2022-09-24T13:18:50.350Z,30.13
2022-09-24T13:21:24.780Z,30.93
2022-09-24T13:23:52.217Z,30.57
2022-09-24T13:26:24.629Z,28.89
2022-09-24T13:28:58.674Z,28.31
2022-09-24T13:31:27.103Z,28.30
2022-09-24T13:34:03.535Z,28.42
2022-09-24T13:36:41.920Z,29.24
2022-09-24T13:39:34.649Z,29.40
2022-09-24T13:42:37.234Z,30.56
2022-09-24T13:45:15.563Z,30.12
2022-09-24T13:47:51.578Z,29.54
2022-09-24T13:50:31.976Z,30.37
2022-09-24T13:53:07.163Z,31.72
2022-09-24T13:55:45.169Z,32.19
2022-09-24T13:58:30.586Z,33.59
2022-09-24T14:01:00.104Z,34.72
2022-09-24T14:03:32.923Z,35.77
2022-09-24T14:06:05.149Z,36.12
2022-09-24T14:08:32.758Z,37.02
2022-09-24T14:11:12.915Z,37.81
2022-09-24T14:13:45.559Z,38.09
2022-09-24T14:16:19.395Z,38.63
2022-09-24T14:18:47.319Z,39.02
2022-09-24T14:21:35.255Z,39.29
2022-09-24T14:24:28.264Z,39.58
2022-09-24T14:27:09.506Z,38.84
2022-09-24T14:30:04.231Z,38.67
2022-09-24T14:32:42.061Z,38.64
2022-09-24T14:35:31.809Z,39.07
2022-09-24T14:38:15.859Z,38.46
2022-09-24T14:40:51.472Z,38.18
2022-09-24T14:43:31.291Z,37.64
2022-09-24T14:46:06.676Z,37.76
2022-09-24T14:48:34.865Z,37.49
2022-09-24T14:51:01.735Z,38.23
2022-09-24T14:53:34.716Z,39.07
2022-09-24T14:56:29.874Z,39.74
2022-09-24T14:58:57.025Z,40.68
2022-09-24T15:01:31.205Z,41.45
2022-09-24T15:04:05.168Z,41.85
2022-09-24T15:06:34.812Z,41.44
2022-09-24T15:09:24.665Z,41.99
2022-09-24T15:11:55.181Z,41.99
2022-09-24T15:14:27.006Z,41.79
2022-09-24T15:16:54.981Z,42.35
2022-09-24T15:19:28.292Z,42.53
2022-09-24T15:21:59.950Z,42.62
2022-09-24T15:24:26.838Z,42.49
2022-09-24T15:27:06.236Z,42.62
2022-09-24T15:29:33.799Z,42.61
2022-09-24T15:32:00.998Z,41.54
2022-09-24T15:34:28.776Z,41.42
2022-09-24T15:36:58.891Z,41.29
2022-09-24T15:39:27.765Z,41.36
2022-09-24T15:41:54.571Z,41.73
2022-09-24T15:44:29.690Z,41.71
2022-09-24T15:47:03.125Z,42.37
2022-09-24T15:49:30.889Z,43.01
2022-09-24T15:52:24.016Z,43.93
2022-09-24T15:54:51.959Z,44.57
2022-09-24T15:57:18.811Z,45.44
2022-09-24T15:59:45.675Z,46.86
2022-09-24T16:02:18.710Z,51.05
2022-09-24T16:04:45.919Z,54.16
2022-09-24T16:07:12.762Z,59.23
2022-09-24T16:09:40.344Z,60.33
2022-09-24T16:12:06.979Z,60.44
2022-09-24T16:14:33.722Z,60.72
2022-09-24T16:17:00.481Z,62.07
2022-09-24T16:19:31.135Z,62.39
2022-09-24T16:21:59.293Z,63.69
2022-09-24T16:24:26.439Z,64.01
2022-09-24T16:26:53.109Z,63.97
2022-09-24T16:29:20.039Z,64.51
2022-09-24T16:31:49.005Z,65.19
2022-09-24T16:34:15.971Z,66.28
2022-09-24T16:36:42.756Z,67.16
2022-09-24T16:39:10.111Z,67.35
2022-09-24T16:41:37.476Z,67.16
2022-09-24T16:44:04.374Z,67.23
2022-09-24T16:46:31.429Z,67.50
2022-09-24T16:48:58.237Z,67.55
2022-09-24T16:51:24.905Z,68.15
2022-09-24T16:53:55.990Z,68.59
2022-09-24T16:56:23.779Z,68.70
2022-09-24T16:58:52.009Z,68.73
2022-09-24T17:01:20.716Z,69.07
2022-09-24T17:03:55.622Z,69.41
2022-09-24T17:06:27.947Z,69.96
2022-09-24T17:09:14.386Z,70.38
2022-09-24T17:11:41.948Z,70.39
2022-09-24T17:14:11.850Z,70.68
2022-09-24T17:16:43.265Z,71.09
2022-09-24T17:19:11.475Z,71.27
2022-09-24T17:21:40.929Z,71.96
2022-09-24T17:24:09.097Z,71.79
2022-09-24T17:26:37.912Z,72.05
2022-09-24T17:29:05.651Z,72.76
2022-09-24T17:31:33.073Z,73.10
2022-09-24T17:34:07.089Z,73.09
2022-09-24T17:36:34.982Z,73.01
2022-09-24T17:39:02.691Z,73.41
2022-09-24T17:41:30.102Z,74.31
2022-09-24T17:43:58.240Z,74.02
2022-09-24T17:46:30.620Z,74.36
2022-09-24T17:49:00.056Z,74.97
2022-09-24T17:51:37.911Z,75.75
2022-09-24T17:54:08.419Z,75.55
2022-09-24T17:56:38.696Z,75.73
2022-09-24T17:59:07.903Z,75.91
2022-09-24T18:01:36.610Z,76.19
2022-09-24T18:04:12.867Z,76.36
2022-09-24T18:06:41.298Z,76.63
2022-09-24T18:09:10.065Z,76.81
2022-09-24T18:11:40.578Z,77.15
2022-09-24T18:14:13.935Z,77.63
2022-09-24T18:16:41.627Z,77.58
2022-09-24T18:19:10.497Z,77.67
2022-09-24T18:21:37.802Z,78.03
2022-09-24T18:24:04.788Z,78.53
2022-09-24T18:26:36.344Z,78.70
2022-09-24T18:29:11.116Z,78.62
2022-09-24T18:31:40.737Z,78.63
2022-09-24T18:34:09.317Z,78.98
2022-09-24T18:36:38.664Z,78.82
2022-09-24T18:39:07.936Z,78.77
2022-09-24T18:41:36.605Z,79.15
2022-09-24T18:44:03.969Z,79.29
2022-09-24T18:46:32.526Z,79.51
2022-09-24T18:49:00.334Z,79.48
2022-09-24T18:51:35.994Z,79.77
2022-09-24T18:54:06.520Z,79.98
2022-09-24T18:56:34.476Z,80.01
2022-09-24T18:59:09.767Z,79.86
2022-09-24T19:01:41.917Z,79.99
2022-09-24T19:04:10.236Z,80.03
2022-09-24T19:06:40.202Z,80.22
2022-09-24T19:09:12.953Z,80.40
2022-09-24T19:11:41.535Z,80.21
2022-09-24T19:14:11.571Z,80.29
2022-09-24T19:16:39.366Z,80.70
2022-09-24T19:19:06.549Z,80.88
2022-09-24T19:21:33.311Z,81.03
2022-09-24T19:24:00.155Z,81.15
2022-09-24T19:26:30.481Z,81.15
2022-09-24T19:28:58.250Z,81.42
2022-09-24T19:31:38.252Z,81.61
2022-09-24T19:34:08.072Z,81.69
2022-09-24T19:36:44.647Z,81.63
2022-09-24T19:39:17.668Z,81.82
2022-09-24T19:41:45.228Z,81.82
2022-09-24T19:44:13.030Z,81.80
2022-09-24T19:46:40.691Z,81.89
2022-09-24T19:49:07.798Z,81.93
2022-09-24T19:51:35.876Z,81.97
2022-09-24T19:54:08.242Z,82.00
2022-09-24T19:56:39.537Z,82.12
2022-09-24T19:59:08.893Z,82.28
2022-09-24T20:01:36.000Z,82.31
2022-09-24T20:04:06.361Z,82.51
2022-09-24T20:06:36.088Z,82.73
2022-09-24T20:09:03.406Z,82.90
2022-09-24T20:11:32.205Z,82.96
2022-09-24T20:14:00.635Z,83.03
2022-09-24T20:16:33.273Z,83.06
2022-09-24T20:19:01.404Z,83.17
2022-09-24T20:21:33.942Z,83.50
2022-09-24T20:24:03.085Z,83.56
2022-09-24T20:26:48.794Z,83.57
2022-09-24T20:29:19.130Z,83.50
2022-09-24T20:31:52.035Z,83.51
2022-09-24T20:34:21.821Z,83.60
2022-09-24T20:36:48.873Z,83.72
2022-09-24T20:39:17.032Z,84.03
2022-09-24T20:41:49.121Z,83.97
2022-09-24T20:44:16.354Z,84.04
2022-09-24T20:46:43.431Z,84.17
2022-09-24T20:49:22.089Z,84.37
2022-09-24T20:51:56.193Z,84.39
2022-09-24T20:54:39.655Z,84.36
2022-09-24T20:57:06.614Z,84.30
2022-09-24T20:59:33.462Z,84.44
2022-09-24T21:02:00.771Z,84.46
2022-09-24T21:04:27.738Z,84.52
2022-09-24T21:06:54.666Z,84.51
2022-09-24T21:09:21.535Z,84.37
2022-09-24T21:11:50.520Z,84.23
2022-09-24T21:14:18.391Z,84.26
2022-09-24T21:16:47.080Z,84.12
2022-09-24T21:19:15.517Z,83.80
2022-09-24T21:21:42.718Z,83.67
2022-09-24T21:24:13.874Z,83.53
2022-09-24T21:26:42.329Z,83.50
2022-09-24T21:29:22.279Z,83.48
2022-09-24T21:31:49.218Z,83.55
2022-09-24T21:34:22.616Z,83.50
2022-09-24T21:36:51.917Z,83.47
2022-09-24T21:39:22.613Z,83.60
2022-09-24T21:41:52.553Z,83.64
2022-09-24T21:44:19.528Z,83.85
2022-09-24T21:46:48.062Z,83.78
2022-09-24T21:49:16.609Z,83.81
2022-09-24T21:51:44.752Z,84.10
2022-09-24T21:54:15.985Z,84.26
2022-09-24T21:56:43.759Z,84.33
2022-09-24T21:59:36.614Z,84.35
2022-09-24T22:02:04.090Z,84.37
2022-09-24T22:04:33.726Z,84.52
2022-09-24T22:07:00.583Z,84.60
2022-09-24T22:09:28.893Z,84.77
2022-09-24T22:11:57.309Z,84.93
2022-09-24T22:14:24.112Z,85.04
2022-09-24T22:16:51.224Z,85.23
2022-09-24T22:19:19.147Z,85.37
2022-09-24T22:21:46.407Z,85.57
2022-09-24T22:24:15.574Z,85.65
2022-09-24T22:26:42.627Z,85.72
2022-09-24T22:29:09.360Z,85.81
2022-09-24T22:31:35.998Z,85.88
2022-09-24T22:34:21.495Z,86.08
2022-09-24T22:36:48.520Z,86.11
2022-09-24T22:39:15.279Z,86.05
2022-09-24T22:41:43.636Z,85.94
2022-09-24T22:44:11.564Z,85.97
2022-09-24T22:46:39.138Z,86.11
2022-09-24T22:49:06.425Z,86.22
2022-09-24T22:51:33.499Z,86.18
2022-09-24T22:54:00.825Z,86.33
2022-09-24T22:56:29.506Z,86.50
2022-09-24T22:59:00.560Z,86.45
2022-09-24T23:01:34.602Z,86.43
2022-09-24T23:04:02.014Z,86.57
2022-09-24T23:06:35.124Z,86.63
2022-09-24T23:09:02.256Z,86.69
2022-09-24T23:11:31.968Z,86.65
2022-09-24T23:14:02.630Z,86.65
2022-09-24T23:16:32.094Z,86.61
2022-09-24T23:19:01.298Z,86.65
2022-09-24T23:21:30.999Z,86.69
2022-09-24T23:24:06.972Z,86.73
2022-09-24T23:26:34.056Z,86.77
2022-09-24T23:29:01.973Z,86.97
2022-09-24T23:31:31.553Z,86.90
2022-09-24T23:34:00.701Z,86.86
2022-09-24T23:36:30.529Z,86.93
2022-09-24T23:38:59.271Z,87.02
2022-09-24T23:41:28.475Z,87.23
2022-09-24T23:44:01.563Z,87.34
2022-09-24T23:46:29.679Z,87.27
2022-09-24T23:48:56.902Z,87.20
2022-09-24T23:51:24.093Z,87.18
2022-09-24T23:53:51.399Z,87.33
2022-09-24T23:56:19.763Z,87.25
2022-09-24T23:58:47.218Z,87.24
